createdAt,value
2023-04-27T00:02:21.999Z,73.77
2023-04-27T00:04:49.784Z,74.09
2023-04-27T00:07:17.387Z,74.08
2023-04-27T00:09:44.823Z,74.41
2023-04-27T00:12:12.280Z,74.78
2023-04-27T00:14:39.776Z,74.47
2023-04-27T00:17:07.237Z,74.38
2023-04-27T00:19:34.977Z,74.33
2023-04-27T00:22:02.319Z,74.69
2023-04-27T00:24:29.619Z,74.80
2023-04-27T00:26:57.015Z,74.62
2023-04-27T00:29:24.466Z,74.60
2023-04-27T00:31:51.926Z,75.05
2023-04-27T00:34:19.412Z,74.54
2023-04-27T00:36:48.644Z,74.53
2023-04-27T00:39:17.044Z,74.99
2023-04-27T00:41:44.353Z,74.85
2023-04-27T00:44:11.733Z,74.64
2023-04-27T00:46:39.103Z,74.61
2023-04-27T00:49:06.491Z,75.08
2023-04-27T00:51:33.891Z,75.23
2023-04-27T00:54:02.036Z,75.60
2023-04-27T00:56:31.279Z,74.92
2023-04-27T00:58:58.731Z,74.45
2023-04-27T01:01:26.284Z,73.83
2023-04-27T01:03:54.067Z,73.48
2023-04-27T01:06:21.693Z,74.03
2023-04-27T01:08:49.242Z,74.27
2023-04-27T01:11:16.651Z,74.14
2023-04-27T01:13:44.065Z,74.28
2023-04-27T01:16:11.885Z,74.00
2023-04-27T01:18:40.913Z,74.50
2023-04-27T01:21:08.466Z,74.35
2023-04-27T01:23:36.048Z,74.05
2023-04-27T01:26:04.716Z,73.68
2023-04-27T01:28:32.092Z,73.59
2023-04-27T01:31:01.523Z,73.40
2023-04-27T01:33:28.902Z,73.77
2023-04-27T01:35:56.443Z,73.69
2023-04-27T01:38:24.486Z,73.64
2023-04-27T01:40:51.791Z,74.17
2023-04-27T01:43:21.736Z,74.39
2023-04-27T01:45:49.111Z,74.79
2023-04-27T01:48:16.968Z,73.92
2023-04-27T01:50:44.870Z,73.80
2023-04-27T01:53:12.430Z,73.59
2023-04-27T01:55:40.001Z,73.85
2023-04-27T01:58:07.380Z,73.76
2023-04-27T02:00:35.007Z,73.18
2023-04-27T02:03:02.635Z,73.23
2023-04-27T02:05:30.102Z,74.14
2023-04-27T02:07:57.621Z,74.72
2023-04-27T02:10:25.103Z,74.93
2023-04-27T02:13:00.336Z,74.21
2023-04-27T02:15:29.855Z,73.97
2023-04-27T02:17:58.760Z,73.85
2023-04-27T02:20:26.284Z,73.29
2023-04-27T02:22:54.423Z,74.10
2023-04-27T02:25:21.855Z,74.05
2023-04-27T02:27:49.280Z,74.47
2023-04-27T02:30:17.388Z,74.24
2023-04-27T02:32:45.362Z,73.89
2023-04-27T02:35:13.712Z,73.78
2023-04-27T02:37:41.376Z,73.54
2023-04-27T02:40:09.679Z,73.46
2023-04-27T02:42:39.193Z,73.01
2023-04-27T02:45:08.030Z,73.04
2023-04-27T02:47:37.675Z,73.36
2023-04-27T02:50:05.990Z,73.30
2023-04-27T02:52:35.525Z,73.54
2023-04-27T02:55:03.428Z,73.32
2023-04-27T02:57:31.203Z,72.90
2023-04-27T02:59:58.562Z,72.39
2023-04-27T03:02:26.031Z,72.22
2023-04-27T03:04:57.742Z,71.85
2023-04-27T03:07:25.180Z,71.31
2023-04-27T03:09:52.570Z,71.76
2023-04-27T03:12:19.974Z,71.72
2023-04-27T03:14:47.374Z,72.07
2023-04-27T03:17:14.792Z,71.28
2023-04-27T03:19:42.253Z,71.08
2023-04-27T03:22:09.642Z,70.68
2023-04-27T03:24:37.095Z,70.17
2023-04-27T03:27:04.735Z,69.50
2023-04-27T03:29:32.067Z,69.69
2023-04-27T03:31:59.779Z,69.77
2023-04-27T03:34:27.219Z,69.66
2023-04-27T03:36:54.871Z,69.46
2023-04-27T03:39:22.242Z,68.88
2023-04-27T03:41:49.612Z,68.56
2023-04-27T03:44:17.812Z,68.18
2023-04-27T03:46:45.142Z,68.30
2023-04-27T03:49:13.156Z,67.85
2023-04-27T03:51:42.617Z,67.27
2023-04-27T03:54:10.406Z,67.02
2023-04-27T03:56:38.244Z,66.67
2023-04-27T03:59:05.850Z,66.81
2023-04-27T04:01:35.480Z,66.86
2023-04-27T04:04:03.469Z,66.72
2023-04-27T04:06:32.524Z,66.46
2023-04-27T04:08:59.953Z,65.98
2023-04-27T04:11:27.733Z,65.64
2023-04-27T04:13:58.159Z,65.05
2023-04-27T04:16:44.072Z,64.64
2023-04-27T04:19:11.681Z,64.70
2023-04-27T04:21:39.276Z,63.91
2023-04-27T04:24:07.693Z,64.24
2023-04-27T04:26:35.745Z,63.81
2023-04-27T04:29:03.957Z,63.91
2023-04-27T04:31:33.810Z,64.11
2023-04-27T04:34:02.261Z,63.87
2023-04-27T04:36:31.058Z,63.89
2023-04-27T04:38:58.997Z,63.37
2023-04-27T04:41:27.289Z,63.40
2023-04-27T04:43:55.015Z,62.74
2023-04-27T04:46:22.520Z,61.63
2023-04-27T04:48:52.180Z,61.83
2023-04-27T04:51:21.427Z,61.59
2023-04-27T04:53:49.211Z,61.04
2023-04-27T04:56:17.274Z,61.02
2023-04-27T04:58:44.806Z,60.73
2023-04-27T05:01:12.790Z,60.87
2023-04-27T05:03:40.315Z,60.28
2023-04-27T05:06:08.002Z,60.10
2023-04-27T05:08:36.355Z,60.14
2023-04-27T05:11:03.933Z,60.20
2023-04-27T05:13:31.440Z,59.96
2023-04-27T05:15:58.969Z,59.84
2023-04-27T05:18:26.955Z,59.98
2023-04-27T05:20:54.407Z,59.39
2023-04-27T05:23:22.294Z,59.14
2023-04-27T05:25:51.084Z,59.25
2023-04-27T05:28:18.472Z,57.91
2023-04-27T05:30:46.506Z,58.62
2023-04-27T05:33:14.007Z,58.78
2023-04-27T05:35:41.640Z,58.54
2023-04-27T05:38:09.126Z,58.63
2023-04-27T05:40:37.021Z,58.57
2023-04-27T05:43:08.810Z,58.47
2023-04-27T05:45:40.380Z,58.88
2023-04-27T05:48:08.175Z,58.69
2023-04-27T05:50:41.527Z,58.23
2023-04-27T05:53:18.578Z,58.26
2023-04-27T05:56:01.352Z,57.78
2023-04-27T05:58:29.338Z,57.99
2023-04-27T06:00:58.737Z,58.57
2023-04-27T06:03:28.372Z,58.32
2023-04-27T06:05:58.865Z,57.68
2023-04-27T06:08:27.826Z,56.96
2023-04-27T06:11:08.154Z,56.76
2023-04-27T06:13:36.912Z,57.11
2023-04-27T06:16:04.930Z,57.40
2023-04-27T06:18:33.105Z,57.01
2023-04-27T06:26:38.506Z,56.00
2023-04-27T06:29:17.975Z,56.28
2023-04-27T06:31:45.883Z,55.29
2023-04-27T06:34:15.364Z,55.02
2023-04-27T06:36:44.375Z,54.88
2023-04-27T06:39:12.472Z,54.46
2023-04-27T06:41:45.575Z,54.06
2023-04-27T06:44:20.496Z,54.13
2023-04-27T06:46:48.045Z,54.09
2023-04-27T06:49:16.379Z,53.18
2023-04-27T06:51:44.347Z,53.19
2023-04-27T06:54:21.149Z,52.32
2023-04-27T06:56:51.424Z,52.65
2023-04-27T06:59:28.546Z,51.12
2023-04-27T07:01:57.980Z,51.15
2023-04-27T07:04:25.838Z,50.51
2023-04-27T07:06:55.505Z,51.43
2023-04-27T07:09:27.425Z,51.71
2023-04-27T07:11:58.089Z,50.57
2023-04-27T07:14:26.939Z,49.71
2023-04-27T07:16:54.511Z,50.11
2023-04-27T07:19:23.523Z,49.71
2023-04-27T07:21:52.304Z,49.55
2023-04-27T07:24:20.566Z,49.78
2023-04-27T07:26:58.736Z,50.24
2023-04-27T07:30:01.408Z,49.91
2023-04-27T07:32:33.723Z,49.22
2023-04-27T07:35:07.038Z,49.21
2023-04-27T07:37:39.047Z,48.91
2023-04-27T07:40:17.535Z,48.31
2023-04-27T07:42:55.771Z,48.39
2023-04-27T07:45:24.810Z,47.63
2023-04-27T07:47:53.841Z,47.62
2023-04-27T07:50:25.589Z,48.17
2023-04-27T07:52:54.994Z,47.37
2023-04-27T07:55:23.953Z,46.60
2023-04-27T07:57:54.475Z,47.23
2023-04-27T08:00:22.777Z,46.78
2023-04-27T08:02:52.904Z,47.38
2023-04-27T08:05:22.047Z,47.52
2023-04-27T08:07:55.101Z,47.16
2023-04-27T08:10:23.876Z,47.95
2023-04-27T08:12:53.157Z,47.52
2023-04-27T08:15:21.134Z,47.26
2023-04-27T08:17:48.734Z,47.03
2023-04-27T08:20:16.882Z,47.13
2023-04-27T08:22:45.441Z,43.26
2023-04-27T08:25:13.220Z,42.10
2023-04-27T08:27:52.527Z,41.83
2023-04-27T08:30:46.827Z,42.71
2023-04-27T08:33:20.119Z,42.62
2023-04-27T08:35:49.279Z,41.50
2023-04-27T08:38:18.001Z,41.58
2023-04-27T08:40:46.980Z,40.89
2023-04-27T08:43:16.538Z,40.87
2023-04-27T08:45:50.883Z,39.03
2023-04-27T08:48:19.051Z,39.43
2023-04-27T08:50:51.190Z,39.76
2023-04-27T08:53:22.798Z,38.97
2023-04-27T08:55:51.687Z,39.09
2023-04-27T08:58:19.133Z,39.72
2023-04-27T09:00:49.756Z,40.28
2023-04-27T09:03:26.138Z,40.19
2023-04-27T09:06:04.464Z,40.29
2023-04-27T09:08:47.311Z,39.49
2023-04-27T09:11:17.019Z,40.36
2023-04-27T09:13:45.697Z,40.72
2023-04-27T09:16:22.643Z,40.28
2023-04-27T09:18:57.799Z,39.53
2023-04-27T09:21:36.312Z,39.88
2023-04-27T09:24:14.768Z,39.48
2023-04-27T09:26:43.406Z,40.13
2023-04-27T09:29:12.893Z,39.46
2023-04-27T09:31:41.115Z,39.57
2023-04-27T09:34:09.076Z,39.83
2023-04-27T09:36:38.000Z,39.99
2023-04-27T09:39:09.936Z,40.40
2023-04-27T09:41:55.655Z,40.34
2023-04-27T09:47:15.801Z,40.46
2023-04-27T09:49:44.232Z,39.88
2023-04-27T09:52:12.764Z,40.02
2023-04-27T09:54:42.043Z,39.75
2023-04-27T09:57:44.270Z,38.27
2023-04-27T10:00:39.670Z,38.97
2023-04-27T10:03:42.470Z,39.47
2023-04-27T10:06:29.192Z,39.06
2023-04-27T10:08:57.689Z,40.02
2023-04-27T10:11:41.206Z,39.81
2023-04-27T10:14:11.284Z,40.13
2023-04-27T10:16:52.409Z,39.48
2023-04-27T10:19:22.467Z,40.70
2023-04-27T10:22:08.380Z,39.24
2023-04-27T10:24:40.779Z,40.08
2023-04-27T10:27:11.417Z,40.02
2023-04-27T10:29:43.038Z,40.24
2023-04-27T10:32:31.668Z,40.35
2023-04-27T10:35:09.819Z,40.42
2023-04-27T10:37:45.137Z,41.00
2023-04-27T10:40:15.360Z,40.20
2023-04-27T10:42:43.279Z,38.62
2023-04-27T10:45:13.118Z,38.31
2023-04-27T10:47:49.293Z,38.59
2023-04-27T10:50:18.969Z,38.98
2023-04-27T10:52:47.118Z,39.27
2023-04-27T10:55:20.485Z,40.26
2023-04-27T10:57:53.373Z,39.35
2023-04-27T11:00:37.291Z,38.87
2023-04-27T11:03:21.851Z,37.48
2023-04-27T11:05:59.018Z,38.12
2023-04-27T11:08:31.205Z,36.98
2023-04-27T11:10:58.872Z,35.10
2023-04-27T11:13:28.910Z,34.59
2023-04-27T11:15:58.443Z,34.71
2023-04-27T11:18:30.202Z,34.62
2023-04-27T11:21:14.029Z,35.13
2023-04-27T11:23:42.636Z,34.40
2023-04-27T11:26:20.058Z,34.32
2023-04-27T11:29:06.013Z,33.50
2023-04-27T11:31:47.869Z,34.33
2023-04-27T11:34:23.768Z,33.26
2023-04-27T11:37:18.070Z,33.53
2023-04-27T11:39:46.754Z,33.13
2023-04-27T11:42:23.540Z,32.03
2023-04-27T11:45:06.454Z,32.69
2023-04-27T11:47:36.226Z,31.53
2023-04-27T11:50:08.728Z,31.18
2023-04-27T11:52:39.557Z,31.54
2023-04-27T11:55:09.303Z,31.73
2023-04-27T11:57:37.324Z,31.88
2023-04-27T12:00:11.712Z,32.20
2023-04-27T12:02:45.346Z,32.32
2023-04-27T12:05:14.464Z,32.96
2023-04-27T12:07:43.723Z,33.05
2023-04-27T12:10:11.931Z,32.71
2023-04-27T12:12:39.364Z,31.70
2023-04-27T12:15:08.845Z,31.51
2023-04-27T12:17:37.993Z,32.16
2023-04-27T12:20:06.340Z,32.03
2023-04-27T12:22:35.549Z,31.91
2023-04-27T12:25:03.168Z,31.82
2023-04-27T12:27:49.810Z,32.17
2023-04-27T12:30:18.272Z,31.79
2023-04-27T12:32:46.672Z,31.55
2023-04-27T12:35:15.723Z,32.16
2023-04-27T12:37:43.432Z,32.52
2023-04-27T12:40:12.316Z,31.94
2023-04-27T12:42:40.332Z,32.56
2023-04-27T12:45:08.729Z,32.04
2023-04-27T12:50:07.173Z,32.98
2023-04-27T12:52:35.481Z,32.44
2023-04-27T12:55:02.952Z,32.14
2023-04-27T12:57:31.887Z,32.33
2023-04-27T13:00:01.576Z,32.05
2023-04-27T13:02:32.947Z,31.88
2023-04-27T13:05:00.519Z,32.45
2023-04-27T13:07:28.053Z,32.76
2023-04-27T13:09:55.414Z,32.50
2023-04-27T13:12:22.934Z,33.24
2023-04-27T13:14:50.311Z,33.08
2023-04-27T13:17:18.133Z,33.25
2023-04-27T13:19:45.414Z,33.24
2023-04-27T13:22:13.564Z,32.73
2023-04-27T13:24:42.407Z,33.35
2023-04-27T13:27:09.953Z,32.85
2023-04-27T13:29:37.627Z,33.08
2023-04-27T13:32:08.809Z,33.63
2023-04-27T13:34:36.294Z,33.42
2023-04-27T13:37:04.520Z,34.09
2023-04-27T13:39:33.097Z,34.13
2023-04-27T13:42:00.881Z,34.61
2023-04-27T13:44:28.401Z,34.69
2023-04-27T13:46:56.002Z,34.87
2023-04-27T13:49:42.161Z,34.10
2023-04-27T13:52:10.267Z,34.17
2023-04-27T13:54:38.045Z,34.35
2023-04-27T13:57:05.462Z,34.45
2023-04-27T13:59:32.855Z,34.59
2023-04-27T14:02:00.368Z,34.78
2023-04-27T14:04:28.204Z,34.37
2023-04-27T14:06:55.963Z,34.66
2023-04-27T14:09:24.499Z,34.57
2023-04-27T14:11:57.070Z,34.26
2023-04-27T14:14:25.103Z,34.14
2023-04-27T14:16:57.221Z,34.58
2023-04-27T14:19:24.637Z,35.17
2023-04-27T14:21:52.236Z,35.40
2023-04-27T14:24:20.085Z,35.26
2023-04-27T14:27:06.387Z,35.67
2023-04-27T14:29:33.789Z,35.38
2023-04-27T14:32:01.605Z,35.44
2023-04-27T14:34:29.232Z,35.70
2023-04-27T14:36:57.039Z,35.75
2023-04-27T14:39:24.445Z,36.05
2023-04-27T14:41:52.040Z,36.17
2023-04-27T14:44:19.225Z,35.69
2023-04-27T14:46:46.659Z,35.49
2023-04-27T14:49:14.130Z,34.86
2023-04-27T14:51:43.408Z,35.17
2023-04-27T14:54:11.515Z,35.54
2023-04-27T14:56:38.915Z,35.31
2023-04-27T14:59:06.416Z,35.42
2023-04-27T15:01:33.785Z,35.58
2023-04-27T15:04:01.578Z,36.13
2023-04-27T15:06:30.636Z,35.82
2023-04-27T15:08:58.009Z,35.91
2023-04-27T15:11:25.348Z,36.33
2023-04-27T15:13:52.747Z,36.53
2023-04-27T15:16:20.610Z,36.62
2023-04-27T15:18:47.942Z,37.02
2023-04-27T15:21:15.422Z,37.65
2023-04-27T15:23:42.870Z,37.51
2023-04-27T15:26:10.239Z,38.13
2023-04-27T15:28:37.808Z,38.25
2023-04-27T15:31:05.178Z,38.06
2023-04-27T15:33:33.308Z,38.38
2023-04-27T15:36:00.732Z,38.44
2023-04-27T15:38:28.054Z,39.06
2023-04-27T15:40:55.451Z,38.92
2023-04-27T15:43:22.916Z,38.93
2023-04-27T15:45:50.692Z,39.17
2023-04-27T15:48:18.120Z,39.47
2023-04-27T15:50:46.685Z,39.65
2023-04-27T15:53:14.068Z,39.74
2023-04-27T15:55:41.493Z,40.10
2023-04-27T15:58:08.970Z,40.12
2023-04-27T16:00:36.453Z,40.87
2023-04-27T16:03:04.524Z,40.73
2023-04-27T16:05:32.105Z,40.81
2023-04-27T16:07:59.421Z,41.03
2023-04-27T16:10:26.840Z,40.92
2023-04-27T16:12:54.257Z,41.42
2023-04-27T16:15:21.805Z,41.24
2023-04-27T16:17:49.412Z,41.17
2023-04-27T16:20:16.627Z,41.65
2023-04-27T16:22:43.892Z,41.89
2023-04-27T16:25:11.384Z,42.16
2023-04-27T16:27:39.676Z,42.60
2023-04-27T16:30:07.743Z,42.65
2023-04-27T16:32:35.715Z,42.88
2023-04-27T16:35:03.635Z,43.15
2023-04-27T16:37:32.967Z,43.39
2023-04-27T16:40:18.804Z,43.56
2023-04-27T16:42:47.439Z,44.14
2023-04-27T16:45:15.011Z,44.41
2023-04-27T16:47:42.770Z,44.87
2023-04-27T16:50:10.968Z,45.60
2023-04-27T16:52:38.389Z,45.07
2023-04-27T16:55:06.512Z,45.80
2023-04-27T16:57:34.026Z,45.79
2023-04-27T17:00:01.866Z,46.81
2023-04-27T17:02:34.117Z,47.46
2023-04-27T17:05:02.956Z,47.47
2023-04-27T17:07:33.038Z,48.39
2023-04-27T17:10:00.951Z,48.57
2023-04-27T17:12:28.871Z,49.58
2023-04-27T17:14:56.599Z,49.56
2023-04-27T17:17:24.006Z,50.93
2023-04-27T17:19:51.776Z,50.12
2023-04-27T17:22:19.274Z,50.58
2023-04-27T17:24:46.735Z,50.95
2023-04-27T17:27:14.110Z,51.04
2023-04-27T17:29:41.690Z,51.37
2023-04-27T17:32:09.862Z,51.59
2023-04-27T17:34:37.647Z,51.06
2023-04-27T17:37:05.276Z,50.71
2023-04-27T17:39:32.665Z,50.65
2023-04-27T17:41:59.972Z,50.80
2023-04-27T17:44:27.388Z,50.90
2023-04-27T17:46:55.055Z,51.08
2023-04-27T17:49:22.658Z,51.28
2023-04-27T17:51:50.089Z,51.39
2023-04-27T17:54:17.376Z,51.63
2023-04-27T17:56:44.752Z,52.04
2023-04-27T17:59:12.274Z,51.20
2023-04-27T18:01:39.837Z,51.65
2023-04-27T18:04:07.539Z,51.86
2023-04-27T18:06:34.863Z,53.71
2023-04-27T18:09:02.328Z,52.69
2023-04-27T18:11:29.810Z,53.11
2023-04-27T18:13:58.388Z,52.49
2023-04-27T18:16:26.030Z,52.90
2023-04-27T18:18:53.477Z,52.53
2023-04-27T18:24:06.357Z,52.97
2023-04-27T18:26:39.540Z,53.27
2023-04-27T18:29:06.836Z,53.76
2023-04-27T18:31:35.259Z,53.83
2023-04-27T18:34:02.598Z,53.77
2023-04-27T18:36:30.019Z,53.74
2023-04-27T18:38:58.542Z,54.26
2023-04-27T18:41:26.182Z,54.43
2023-04-27T18:43:53.765Z,55.18
2023-04-27T18:46:21.427Z,55.31
2023-04-27T18:48:48.841Z,55.63
2023-04-27T18:51:16.236Z,55.21
2023-04-27T18:53:43.654Z,55.10
2023-04-27T18:56:11.275Z,55.02
2023-04-27T18:58:38.710Z,54.64
2023-04-27T19:01:06.269Z,54.65
2023-04-27T19:03:33.698Z,54.57
2023-04-27T19:06:01.246Z,54.59
2023-04-27T19:08:28.716Z,54.35
2023-04-27T19:10:57.446Z,54.40
2023-04-27T19:13:25.833Z,53.79
2023-04-27T19:15:53.248Z,53.97
2023-04-27T19:18:20.678Z,53.61
2023-04-27T19:20:48.088Z,53.72
2023-04-27T19:23:17.078Z,53.70
2023-04-27T19:25:44.466Z,53.89
2023-04-27T19:28:12.148Z,53.66
2023-04-27T19:30:39.638Z,53.06
2023-04-27T19:33:07.156Z,52.59
2023-04-27T19:35:34.551Z,52.65
2023-04-27T19:38:01.915Z,52.23
2023-04-27T19:40:29.383Z,51.95
2023-04-27T19:42:56.662Z,51.63
2023-04-27T19:45:24.071Z,51.38
2023-04-27T19:47:51.634Z,51.12
2023-04-27T19:50:19.045Z,51.15
2023-04-27T19:52:46.387Z,51.08
2023-04-27T19:55:14.093Z,51.01
2023-04-27T19:57:41.518Z,50.00
2023-04-27T20:00:12.236Z,50.37
2023-04-27T20:02:43.082Z,50.22
2023-04-27T20:05:11.694Z,50.22
2023-04-27T20:07:39.417Z,49.88
2023-04-27T20:10:07.254Z,49.61
2023-04-27T20:15:05.564Z,49.65
2023-04-27T20:17:33.690Z,49.04
2023-04-27T20:20:01.295Z,49.15
2023-04-27T20:22:29.795Z,49.33
2023-04-27T20:24:59.415Z,49.34
2023-04-27T20:27:26.904Z,49.43
2023-04-27T20:29:54.323Z,49.30
2023-04-27T20:32:22.074Z,49.47
2023-04-27T20:34:49.403Z,49.43
2023-04-27T20:37:17.312Z,49.55
2023-04-27T20:39:44.641Z,49.75
2023-04-27T20:42:12.789Z,49.71
2023-04-27T20:44:40.251Z,49.57
2023-04-27T20:47:07.768Z,49.92
2023-04-27T20:49:35.733Z,49.71
2023-04-27T20:52:03.482Z,49.53
2023-04-27T20:54:33.035Z,49.54
2023-04-27T20:57:04.018Z,49.40
2023-04-27T20:59:31.504Z,49.26
2023-04-27T21:01:59.067Z,48.59
2023-04-27T21:04:26.538Z,48.86
2023-04-27T21:06:54.102Z,48.99
2023-04-27T21:09:21.513Z,48.72
2023-04-27T21:11:48.917Z,48.51
2023-04-27T21:14:16.515Z,48.87
2023-04-27T21:16:44.013Z,48.46
2023-04-27T21:19:14.923Z,48.84
2023-04-27T21:21:42.662Z,49.12
2023-04-27T21:24:09.995Z,48.83
2023-04-27T21:26:37.558Z,48.99
2023-04-27T21:29:06.153Z,48.98
2023-04-27T21:31:34.085Z,48.99
2023-04-27T21:34:03.810Z,49.32
2023-04-27T21:36:33.231Z,49.17
2023-04-27T21:39:00.608Z,49.23
2023-04-27T21:41:28.016Z,49.74
2023-04-27T21:43:55.471Z,49.84
2023-04-27T21:46:41.458Z,50.01
2023-04-27T21:49:27.674Z,50.49
2023-04-27T21:51:55.066Z,50.53
2023-04-27T21:54:22.378Z,50.72
2023-04-27T21:56:49.764Z,50.76
2023-04-27T21:59:17.202Z,51.25
2023-04-27T22:01:45.410Z,50.98
2023-04-27T22:04:13.181Z,51.35
2023-04-27T22:06:41.049Z,51.53
2023-04-27T22:09:08.563Z,51.42
2023-04-27T22:11:36.088Z,51.63
2023-04-27T22:14:03.544Z,51.72
2023-04-27T22:16:30.978Z,51.45
2023-04-27T22:18:59.949Z,51.55
2023-04-27T22:21:29.095Z,51.65
2023-04-27T22:23:56.915Z,51.46
2023-04-27T22:26:24.305Z,51.27
2023-04-27T22:28:51.843Z,51.34
2023-04-27T22:31:19.350Z,51.35
2023-04-27T22:33:46.790Z,51.39
2023-04-27T22:36:14.253Z,51.62
2023-04-27T22:38:42.072Z,51.45
2023-04-27T22:41:09.605Z,51.40
2023-04-27T22:43:37.084Z,51.55
2023-04-27T22:46:04.468Z,51.77
2023-04-27T22:48:32.227Z,51.68
2023-04-27T22:50:59.860Z,51.57
2023-04-27T22:53:27.315Z,51.47
2023-04-27T22:55:54.690Z,51.85
2023-04-27T22:58:22.137Z,51.53
2023-04-27T23:00:49.508Z,51.84
2023-04-27T23:03:17.282Z,52.22
2023-04-27T23:05:44.848Z,52.05
2023-04-27T23:08:13.552Z,52.22
2023-04-27T23:10:41.038Z,52.72
2023-04-27T23:13:11.597Z,52.67
2023-04-27T23:15:41.973Z,53.04
2023-04-27T23:18:09.436Z,53.14
2023-04-27T23:20:36.800Z,53.17
2023-04-27T23:23:04.209Z,52.95
2023-04-27T23:25:34.613Z,53.25
2023-04-27T23:28:02.070Z,53.11
2023-04-27T23:30:30.845Z,53.40
2023-04-27T23:32:58.255Z,53.37
2023-04-27T23:35:28.663Z,53.48
2023-04-27T23:37:56.831Z,53.66
2023-04-27T23:40:24.419Z,53.60
2023-04-27T23:42:52.775Z,53.63
2023-04-27T23:45:21.093Z,53.81
2023-04-27T23:47:48.777Z,53.91
2023-04-27T23:50:16.247Z,53.70
2023-04-27T23:52:43.756Z,53.97
2023-04-27T23:55:11.618Z,54.05
2023-04-27T23:57:39.240Z,54.13
